Time;durP1;ratioP1;P1;durP2;ratioP2;P2;SDS_P1;SDS_P2;PMS_P1;PMS_P2;Temp;Humidity;BMP_temperature;BMP_pressure;BME280_temperature;BME280_humidity;BME280_pressure;Samples;Min_cycle;Max_cycle;Signal;HPM_P1;HPM_P2
2022/02/16 00:01:04;;;;;;;3.05;2.00;;;4.00;92.70;;;;;;5106144;28;20269;-85
2022/02/16 00:03:31;;;;;;;1.25;1.15;;;4.30;92.80;;;;;;5103524;28;20202;-85
2022/02/16 00:05:58;;;;;;;2.58;1.50;;;4.00;92.80;;;;;;5102459;28;20285;-85
2022/02/16 00:08:25;;;;;;;2.00;1.30;;;4.00;92.80;;;;;;5090739;28;20657;-84
2022/02/16 00:10:52;;;;;;;1.73;1.27;;;3.80;95.10;;;;;;5106008;28;20255;-85
2022/02/16 00:13:20;;;;;;;2.10;1.30;;;4.00;92.70;;;;;;5094039;28;20221;-85
2022/02/16 00:15:48;;;;;;;0.90;0.90;;;3.50;99.30;;;;;;5101037;28;20302;-84
2022/02/16 00:18:15;;;;;;;3.63;1.77;;;3.90;92.80;;;;;;5098354;28;20281;-85
2022/02/16 00:20:42;;;;;;;2.30;1.45;;;4.00;93.00;;;;;;5100270;28;20281;-85
2022/02/16 00:23:09;;;;;;;3.08;2.53;;;4.00;93.00;;;;;;5109110;28;20238;-85
2022/02/16 00:25:36;;;;;;;3.08;1.55;;;3.90;92.70;;;;;;5098439;28;20286;-84
2022/02/16 00:28:04;;;;;;;2.10;1.40;;;3.90;92.90;;;;;;5091822;28;20263;-85
2022/02/16 00:30:31;;;;;;;1.40;1.30;;;4.00;92.90;;;;;;5091517;28;20266;-84
2022/02/16 00:32:59;;;;;;;2.35;1.80;;;4.00;92.80;;;;;;5095493;28;20254;-84
2022/02/16 00:35:26;;;;;;;1.33;1.23;;;4.00;93.10;;;;;;5097379;28;20612;-85
2022/02/16 00:37:53;;;;;;;2.97;1.40;;;4.00;92.90;;;;;;5090450;28;20299;-85
2022/02/16 00:40:20;;;;;;;4.20;1.65;;;4.00;93.10;;;;;;5100151;28;20195;-85
2022/02/16 00:42:46;;;;;;;3.00;1.70;;;4.10;93.10;;;;;;5089856;28;20206;-85
2022/02/16 00:45:13;;;;;;;2.13;1.70;;;4.10;93.10;;;;;;5100567;28;20597;-85
2022/02/16 00:47:40;;;;;;;1.38;1.20;;;4.00;93.20;;;;;;5094401;28;20198;-84
2022/02/16 00:50:10;;;;;;;1.20;1.20;;;4.10;93.40;;;;;;5090319;28;20442;-84
2022/02/16 00:52:37;;;;;;;3.38;1.48;;;4.10;92.90;;;;;;5091160;28;20293;-84
2022/02/16 00:55:04;;;;;;;2.05;1.35;;;4.30;93.20;;;;;;5089769;28;20186;-84
2022/02/16 00:57:31;;;;;;;1.35;1.25;;;4.00;98.90;;;;;;5092536;28;20274;-84
2022/02/16 00:59:58;;;;;;;2.92;1.35;;;4.10;93.00;;;;;;5105461;28;20321;-85
2022/02/16 01:02:25;;;;;;;3.47;1.33;;;4.10;93.10;;;;;;5095469;28;20214;-84
2022/02/16 01:04:52;;;;;;;1.88;1.77;;;5.20;93.80;;;;;;5093792;28;20961;-85
2022/02/16 01:07:20;;;;;;;2.17;1.65;;;4.20;93.00;;;;;;5089665;28;20210;-84
2022/02/16 01:09:48;;;;;;;6.03;1.40;;;4.30;95.70;;;;;;5090515;28;20240;-84
2022/02/16 01:12:16;;;;;;;2.17;1.98;;;4.20;93.00;;;;;;5089383;28;20202;-84
2022/02/16 01:14:44;;;;;;;2.55;1.50;;;4.20;93.00;;;;;;5090867;28;20251;-84
2022/02/16 01:17:12;;;;;;;1.45;1.35;;;4.30;93.30;;;;;;5102783;28;20681;-85
2022/02/16 01:19:39;;;;;;;1.10;1.10;;;4.30;92.90;;;;;;5092530;28;20202;-85
2022/02/16 01:22:07;;;;;;;3.60;1.80;;;4.30;93.00;;;;;;5109770;28;20225;-84
2022/02/16 01:24:37;;;;;;;3.88;1.85;;;4.30;93.00;;;;;;5101487;28;20199;-84
2022/02/16 01:27:05;;;;;;;4.15;1.70;;;4.30;93.20;;;;;;5107614;28;20198;-84
2022/02/16 01:29:32;;;;;;;2.45;1.48;;;4.80;93.40;;;;;;5109356;28;20216;-84
2022/02/16 01:32:00;;;;;;;2.95;1.55;;;4.30;93.00;;;;;;5107655;28;20656;-84
2022/02/16 01:34:28;;;;;;;4.50;1.70;;;4.20;93.20;;;;;;5100922;28;20572;-84
2022/02/16 01:36:55;;;;;;;1.58;1.48;;;4.40;93.10;;;;;;5100486;28;20239;-84
2022/02/16 01:39:22;;;;;;;1.58;1.30;;;4.40;93.10;;;;;;5107294;27;20199;-84
2022/02/16 01:41:52;;;;;;;1.05;1.05;;;4.50;93.20;;;;;;5090240;28;20664;-84
2022/02/16 01:44:21;;;;;;;1.40;1.30;;;4.70;93.10;;;;;;5081360;28;20802;-85
2022/02/16 01:46:52;;;;;;;1.30;1.20;;;5.00;95.80;;;;;;5097904;28;20953;-84
2022/02/16 01:49:19;;;;;;;2.22;1.42;;;4.40;98.50;;;;;;5105764;28;20194;-84
2022/02/16 01:51:46;;;;;;;2.08;1.58;;;4.40;93.00;;;;;;5093075;28;20190;-84
2022/02/16 01:54:13;;;;;;;1.40;1.20;;;4.50;98.80;;;;;;5102842;28;20233;-85
2022/02/16 01:56:41;;;;;;;1.35;1.10;;;4.50;93.20;;;;;;5101287;28;20250;-84
2022/02/16 01:59:11;;;;;;;3.55;1.40;;;4.50;96.80;;;;;;5107386;28;20202;-84
2022/02/16 02:01:39;;;;;;;1.42;1.30;;;4.50;93.10;;;;;;5092089;28;20218;-84
2022/02/16 02:04:07;;;;;;;4.15;1.63;;;4.50;98.80;;;;;;5088254;28;20213;-84
2022/02/16 02:06:34;;;;;;;3.15;1.67;;;4.50;93.10;;;;;;5092702;28;20273;-84
2022/02/16 02:09:01;;;;;;;1.65;0.90;;;4.50;92.90;;;;;;5106616;28;20202;-85
2022/02/16 02:11:29;;;;;;;2.10;1.20;;;4.50;93.20;;;;;;5093557;28;20557;-84
2022/02/16 02:13:58;;;;;;;1.10;1.05;;;4.50;92.90;;;;;;5108320;28;20632;-84
2022/02/16 02:16:27;;;;;;;2.60;1.20;;;4.60;95.40;;;;;;5088949;28;20787;-85
2022/02/16 02:18:56;;;;;;;3.05;1.42;;;4.60;92.80;;;;;;5091946;28;20189;-84
2022/02/16 02:21:25;;;;;;;2.00;1.38;;;4.60;92.70;;;;;;5089852;28;20195;-84
2022/02/16 02:23:52;;;;;;;2.22;1.75;;;4.60;92.60;;;;;;5095057;28;20557;-84
2022/02/16 02:26:20;;;;;;;2.03;1.13;;;4.60;92.80;;;;;;5106561;28;20243;-85
2022/02/16 02:28:48;;;;;;;1.25;1.10;;;4.60;92.80;;;;;;5095582;28;20248;-85
2022/02/16 02:31:15;;;;;;;2.15;1.33;;;4.70;92.70;;;;;;5087843;28;20198;-85
2022/02/16 02:33:42;;;;;;;1.80;0.95;;;4.70;92.80;;;;;;5088856;28;20566;-84
2022/02/16 02:36:10;;;;;;;1.00;0.88;;;6.10;93.30;;;;;;5088185;28;20704;-84
2022/02/16 02:38:38;;;;;;;1.45;1.10;;;4.70;92.70;;;;;;5108631;28;20284;-84
2022/02/16 02:41:07;;;;;;;2.65;1.15;;;4.60;92.60;;;;;;5103138;28;20194;-85
2022/02/16 02:43:45;;;;;;;1.75;1.40;;;4.70;99.00;;;;;;5089632;28;20241;-85
2022/02/16 02:46:12;;;;;;;0.90;0.90;;;4.60;92.60;;;;;;5095206;28;20198;-84
2022/02/16 02:48:39;;;;;;;1.42;1.30;;;4.70;92.70;;;;;;5100755;28;20222;-84
2022/02/16 02:51:06;;;;;;;1.27;1.08;;;4.70;92.60;;;;;;5089996;28;20199;-84
2022/02/16 02:53:34;;;;;;;0.73;0.73;;;4.70;92.70;;;;;;5098051;28;20714;-84
2022/02/16 02:56:03;;;;;;;1.00;0.95;;;4.80;95.50;;;;;;5107570;28;20214;-84
2022/02/16 02:58:30;;;;;;;1.10;0.90;;;4.70;92.80;;;;;;5089259;28;20279;-84
2022/02/16 03:00:58;;;;;;;1.30;1.20;;;4.80;92.80;;;;;;5100062;28;20239;-85
2022/02/16 03:03:25;;;;;;;2.88;1.30;;;4.70;96.70;;;;;;5094613;28;20207;-84
2022/02/16 03:05:52;;;;;;;1.42;0.80;;;4.70;92.80;;;;;;5108019;28;20190;-84
2022/02/16 03:08:19;;;;;;;0.77;0.75;;;4.80;92.90;;;;;;5099992;28;20256;-84
2022/02/16 03:10:46;;;;;;;0.85;0.85;;;4.60;99.10;;;;;;5090996;28;20195;-84
2022/02/16 03:13:20;;;;;;;1.50;0.80;;;4.80;92.90;;;;;;5092793;28;20218;-85
2022/02/16 03:15:48;;;;;;;1.42;1.20;;;4.90;95.40;;;;;;5093011;28;20850;-84
2022/02/16 03:18:15;;;;;;;1.05;0.80;;;4.80;92.70;;;;;;5088064;28;20191;-85
2022/02/16 03:20:43;;;;;;;1.35;1.25;;;4.80;93.00;;;;;;5091811;28;20260;-84
2022/02/16 03:23:10;;;;;;;1.20;0.70;;;4.80;93.00;;;;;;5094149;28;20186;-85
2022/02/16 03:25:37;;;;;;;2.78;1.20;;;4.90;93.10;;;;;;5104850;28;20683;-84
2022/02/16 03:28:04;;;;;;;0.70;0.70;;;4.80;93.10;;;;;;5104195;28;20286;-85
2022/02/16 03:30:32;;;;;;;4.15;1.10;;;4.80;93.20;;;;;;5102517;28;20717;-85
2022/02/16 03:33:02;;;;;;;1.23;1.10;;;4.80;93.10;;;;;;5091109;28;20606;-84
2022/02/16 03:35:29;;;;;;;1.55;1.35;;;4.80;93.20;;;;;;5100411;28;20209;-85
2022/02/16 03:37:56;;;;;;;1.35;1.10;;;4.80;93.20;;;;;;5102704;28;20205;-84
2022/02/16 03:40:23;;;;;;;1.10;0.85;;;4.90;93.20;;;;;;5106679;28;20221;-84
2022/02/16 03:42:50;;;;;;;0.75;0.75;;;4.90;93.20;;;;;;5100289;28;20294;-84
2022/02/16 03:45:17;;;;;;;1.60;1.50;;;4.90;93.00;;;;;;5081013;28;20304;-84
2022/02/16 03:47:46;;;;;;;1.05;0.93;;;4.90;93.00;;;;;;5105712;27;20303;-85
2022/02/16 03:50:13;;;;;;;1.52;0.93;;;4.90;93.10;;;;;;5091057;28;20745;-85
2022/02/16 03:52:40;;;;;;;1.58;0.88;;;4.90;93.00;;;;;;5101088;28;20217;-85
2022/02/16 03:55:08;;;;;;;1.00;0.88;;;4.90;93.10;;;;;;5104197;27;20227;-84
2022/02/16 03:57:35;;;;;;;1.05;0.90;;;5.00;93.00;;;;;;5094608;28;20319;-84
2022/02/16 04:00:04;;;;;;;6.85;1.20;;;5.00;93.00;;;;;;5111124;28;20210;-85
2022/02/16 04:02:31;;;;;;;1.83;0.75;;;5.00;92.90;;;;;;5106635;27;20205;-84
2022/02/16 04:04:59;;;;;;;0.80;0.80;;;5.10;94.90;;;;;;5090253;28;20253;-84
2022/02/16 04:07:26;;;;;;;0.85;0.85;;;5.10;96.40;;;;;;5103578;28;20603;-84
2022/02/16 04:09:53;;;;;;;2.38;1.00;;;5.10;92.70;;;;;;5098934;28;20298;-84
2022/02/16 04:12:20;;;;;;;1.17;0.80;;;5.10;92.80;;;;;;5090807;28;20676;-84
2022/02/16 04:14:47;;;;;;;0.60;0.40;;;5.20;92.80;;;;;;5092358;28;20740;-84
2022/02/16 04:17:14;;;;;;;1.30;0.85;;;5.10;92.80;;;;;;5090303;28;20281;-85
2022/02/16 04:19:40;;;;;;;1.15;1.05;;;5.20;92.90;;;;;;5094305;28;20202;-84
2022/02/16 04:22:14;;;;;;;1.60;0.75;;;5.10;92.90;;;;;;5091509;28;20273;-85
2022/02/16 04:24:41;;;;;;;1.40;1.30;;;5.20;95.00;;;;;;5089934;28;20282;-85
2022/02/16 04:27:08;;;;;;;4.15;0.90;;;5.20;92.80;;;;;;5078989;28;20210;-84
2022/02/16 04:29:35;;;;;;;1.95;1.08;;;5.40;92.90;;;;;;5090433;28;20290;-84
2022/02/16 04:32:02;;;;;;;1.90;0.93;;;5.10;95.10;;;;;;5088073;28;20195;-85
2022/02/16 04:34:28;;;;;;;6.50;1.75;;;5.30;93.00;;;;;;5101545;28;20261;-85
2022/02/16 04:36:55;;;;;;;1.45;0.77;;;5.30;92.80;;;;;;5110460;28;20216;-85
2022/02/16 04:39:24;;;;;;;0.50;0.50;;;5.40;93.00;;;;;;5104844;28;20274;-84
2022/02/16 04:41:50;;;;;;;1.15;0.80;;;5.30;93.00;;;;;;5104480;28;20202;-84
2022/02/16 04:44:17;;;;;;;1.80;0.98;;;5.30;93.00;;;;;;5081296;28;20281;-85
2022/02/16 04:46:44;;;;;;;0.55;0.55;;;5.30;98.40;;;;;;5089663;28;20281;-84
2022/02/16 04:49:11;;;;;;;0.63;0.63;;;5.40;93.20;;;;;;5107839;28;20263;-84
2022/02/16 04:51:38;;;;;;;0.80;0.63;;;5.50;96.90;;;;;;5092986;27;20285;-84
2022/02/16 04:54:05;;;;;;;1.63;0.63;;;5.40;93.50;;;;;;5109880;28;20238;-84
2022/02/16 04:56:33;;;;;;;0.95;0.90;;;5.40;93.40;;;;;;5101228;28;20237;-84
2022/02/16 04:59:00;;;;;;;0.70;0.70;;;5.00;98.60;;;;;;5102348;28;20372;-84
2022/02/16 05:01:27;;;;;;;0.70;0.65;;;5.30;93.50;;;;;;5091263;28;20676;-84
2022/02/16 05:03:54;;;;;;;1.25;0.65;;;5.30;93.60;;;;;;5086326;28;20276;-84
2022/02/16 05:06:22;;;;;;;1.45;1.00;;;5.30;93.50;;;;;;5102306;28;20218;-85
2022/02/16 05:08:50;;;;;;;0.50;0.50;;;5.40;93.70;;;;;;5088230;28;20209;-85
2022/02/16 05:11:16;;;;;;;4.50;0.75;;;5.50;93.50;;;;;;5093914;28;20247;-86
2022/02/16 05:13:45;;;;;;;0.47;0.47;;;5.40;93.60;;;;;;5087843;28;20230;-85
2022/02/16 05:16:12;;;;;;;0.80;0.70;;;5.50;93.70;;;;;;5089272;28;20209;-85
2022/02/16 05:18:39;;;;;;;1.15;0.80;;;5.40;93.80;;;;;;5092043;28;20685;-85
2022/02/16 05:21:06;;;;;;;0.60;0.55;;;5.30;97.20;;;;;;5104103;28;20194;-85
2022/02/16 05:23:33;;;;;;;0.80;0.77;;;5.40;93.90;;;;;;5107532;28;20206;-85
2022/02/16 05:26:00;;;;;;;1.15;0.70;;;5.70;99.20;;;;;;5101990;28;20222;-84
2022/02/16 05:28:27;;;;;;;0.63;0.60;;;5.50;93.80;;;;;;5109027;28;20205;-85
2022/02/16 05:30:56;;;;;;;0.90;0.70;;;5.50;93.70;;;;;;5104778;28;20204;-85
2022/02/16 05:33:23;;;;;;;0.52;0.47;;;5.60;93.90;;;;;;5104052;28;20234;-85
2022/02/16 05:35:50;;;;;;;1.25;0.82;;;5.60;94.00;;;;;;5104830;28;20265;-84
2022/02/16 05:38:17;;;;;;;2.28;0.57;;;5.90;99.90;;;;;;5068645;28;20207;-85
2022/02/16 05:40:44;;;;;;;0.80;0.80;;;5.40;99.60;;;;;;5081629;28;20214;-85
2022/02/16 05:43:13;;;;;;;0.93;0.63;;;5.40;94.40;;;;;;5084001;28;20268;-85
2022/02/16 05:45:40;;;;;;;0.47;0.47;;;5.50;94.10;;;;;;5084354;28;20187;-86
2022/02/16 05:48:08;;;;;;;0.85;0.70;;;5.50;94.30;;;;;;5088798;28;20191;-85
2022/02/16 05:50:36;;;;;;;1.05;1.05;;;5.50;94.50;;;;;;5099612;28;20251;-85
2022/02/16 05:53:03;;;;;;;0.70;0.70;;;5.30;99.90;;;;;;5108621;28;20194;-85
2022/02/16 05:55:30;;;;;;;1.65;0.60;;;5.40;99.90;;;;;;5105379;28;20246;-85
2022/02/16 05:57:57;;;;;;;0.60;0.60;;;3.90;99.90;;;;;;5109258;28;20190;-85
2022/02/16 06:00:24;;;;;;;2.65;0.80;;;5.50;99.90;;;;;;5103353;27;20581;-85
2022/02/16 06:02:51;;;;;;;1.25;0.70;;;5.40;94.70;;;;;;5104446;28;20239;-85
2022/02/16 06:05:19;;;;;;;1.80;0.60;;;5.40;94.80;;;;;;5095353;28;20629;-85
2022/02/16 06:07:46;;;;;;;0.88;0.88;;;5.40;94.90;;;;;;5105048;28;20222;-85
2022/02/16 06:10:13;;;;;;;0.82;0.70;;;5.40;94.90;;;;;;5103271;28;20193;-85
2022/02/16 06:12:41;;;;;;;0.70;0.52;;;5.40;95.00;;;;;;5104709;28;20214;-85
2022/02/16 06:15:09;;;;;;;0.80;0.80;;;5.40;95.10;;;;;;5097917;28;20278;-84
2022/02/16 06:17:36;;;;;;;0.70;0.70;;;5.60;99.90;;;;;;5093812;27;20745;-83
2022/02/16 06:20:04;;;;;;;1.75;0.60;;;5.50;94.90;;;;;;5094140;28;20277;-84
2022/02/16 06:22:32;;;;;;;1.30;0.85;;;5.50;95.50;;;;;;5092317;28;20298;-83
2022/02/16 06:24:59;;;;;;;0.57;0.57;;;5.50;95.00;;;;;;5097493;28;20213;-84
2022/02/16 06:27:26;;;;;;;1.85;0.98;;;5.50;95.30;;;;;;5109575;28;20197;-83
2022/02/16 06:29:53;;;;;;;1.52;0.50;;;5.40;95.40;;;;;;5104472;28;20625;-84
2022/02/16 06:32:20;;;;;;;0.80;0.80;;;5.50;95.40;;;;;;5090280;28;20263;-85
2022/02/16 06:34:47;;;;;;;0.80;0.68;;;5.40;95.30;;;;;;5109584;28;20300;-84
2022/02/16 06:37:14;;;;;;;1.55;1.45;;;5.60;95.60;;;;;;5100674;28;20694;-83
2022/02/16 06:39:42;;;;;;;0.40;0.40;;;5.50;95.20;;;;;;5090916;28;20276;-83
2022/02/16 06:42:09;;;;;;;0.70;0.63;;;5.50;98.90;;;;;;5089179;28;20226;-83
2022/02/16 06:44:36;;;;;;;1.55;0.80;;;5.50;95.30;;;;;;5092806;28;20206;-84
2022/02/16 06:47:03;;;;;;;0.93;0.70;;;5.90;95.40;;;;;;5096630;28;20222;-83
2022/02/16 06:49:30;;;;;;;1.05;0.80;;;5.70;95.30;;;;;;5111654;28;20672;-83
2022/02/16 06:51:57;;;;;;;0.98;0.75;;;5.50;99.90;;;;;;5096333;28;20233;-83
2022/02/16 06:54:24;;;;;;;0.68;0.65;;;5.70;95.40;;;;;;5107436;28;20202;-83
2022/02/16 06:56:52;;;;;;;0.75;0.75;;;5.70;95.30;;;;;;5104985;28;20318;-84
2022/02/16 06:59:20;;;;;;;0.73;0.60;;;5.70;95.20;;;;;;5106350;28;20216;-83
2022/02/16 07:01:47;;;;;;;0.40;0.40;;;5.70;95.30;;;;;;5104106;28;20225;-84
2022/02/16 07:04:14;;;;;;;1.02;0.73;;;5.70;99.90;;;;;;5107991;28;20496;-84
2022/02/16 07:06:41;;;;;;;1.45;0.75;;;5.60;99.90;;;;;;5098882;28;20229;-84
2022/02/16 07:09:07;;;;;;;2.10;1.10;;;5.70;95.10;;;;;;5094105;28;20709;-83
2022/02/16 07:11:34;;;;;;;0.65;0.65;;;5.80;95.20;;;;;;5084013;28;20274;-83
2022/02/16 07:14:03;;;;;;;0.88;0.82;;;5.70;95.20;;;;;;5078273;28;20261;-83
2022/02/16 07:16:30;;;;;;;1.30;1.08;;;5.90;99.90;;;;;;5087628;28;20223;-84
2022/02/16 07:18:57;;;;;;;0.43;0.43;;;5.80;95.40;;;;;;5091295;28;20267;-84
2022/02/16 07:21:24;;;;;;;0.70;0.70;;;5.90;95.40;;;;;;5075473;28;20195;-83
2022/02/16 07:23:52;;;;;;;1.30;1.13;;;5.80;95.50;;;;;;5085069;28;20272;-84
2022/02/16 07:26:19;;;;;;;0.90;0.80;;;5.80;95.50;;;;;;5116462;28;20545;-84
2022/02/16 07:28:45;;;;;;;1.00;1.00;;;5.90;99.90;;;;;;5084834;28;20222;-84
2022/02/16 07:31:14;;;;;;;1.40;1.08;;;5.90;99.90;;;;;;5079371;28;20256;-84
2022/02/16 07:33:41;;;;;;;0.90;0.90;;;5.90;95.50;;;;;;5096535;28;20217;-83
2022/02/16 07:36:07;;;;;;;1.15;1.05;;;5.30;98.00;;;;;;5096801;28;20272;-84
2022/02/16 07:38:35;;;;;;;1.85;1.20;;;5.80;96.20;;;;;;5097919;28;20247;-83
2022/02/16 07:41:02;;;;;;;1.08;0.98;;;5.80;96.40;;;;;;5098965;28;20191;-84
2022/02/16 07:43:29;;;;;;;2.50;1.38;;;5.70;96.80;;;;;;5099160;28;20233;-84
2022/02/16 07:45:58;;;;;;;2.35;0.85;;;5.70;99.90;;;;;;5097441;28;20895;-83
2022/02/16 07:48:26;;;;;;;0.65;0.65;;;5.60;99.90;;;;;;5100292;28;20191;-83
2022/02/16 07:50:54;;;;;;;2.20;1.40;;;5.60;97.70;;;;;;5113507;28;20186;-83
2022/02/16 07:53:21;;;;;;;1.52;0.95;;;5.70;98.00;;;;;;5121596;28;20273;-83
2022/02/16 07:55:48;;;;;;;1.33;1.23;;;5.90;99.90;;;;;;5101892;28;20296;-83
2022/02/16 07:58:15;;;;;;;0.90;0.82;;;5.60;99.90;;;;;;5097232;28;20350;-84
2022/02/16 08:00:42;;;;;;;1.10;0.80;;;5.60;98.50;;;;;;5087765;28;20337;-85
2022/02/16 08:03:09;;;;;;;1.65;0.93;;;5.70;98.90;;;;;;5091682;28;20285;-85
2022/02/16 08:05:40;;;;;;;1.48;1.23;;;5.60;99.20;;;;;;5098787;28;20226;-86
2022/02/16 08:08:07;;;;;;;1.20;1.10;;;5.70;99.60;;;;;;5096009;28;20885;-85
2022/02/16 08:10:34;;;;;;;1.95;1.23;;;5.70;99.90;;;;;;5101420;28;20239;-85
2022/02/16 08:13:01;;;;;;;1.50;1.40;;;5.60;99.90;;;;;;5099912;28;20259;-84
2022/02/16 08:15:31;;;;;;;1.92;1.67;;;5.60;99.90;;;;;;5098005;28;20248;-84
2022/02/16 08:17:58;;;;;;;1.02;1.02;;;5.90;99.90;;;;;;5098892;28;20203;-84
2022/02/16 08:20:31;;;;;;;2.67;1.42;;;5.60;99.90;;;;;;5108087;28;20217;-83
2022/02/16 08:23:00;;;;;;;1.65;1.55;;;5.50;99.90;;;;;;5099038;28;20190;-84
2022/02/16 08:25:26;;;;;;;1.52;1.27;;;5.40;99.90;;;;;;5110587;28;20199;-84
2022/02/16 08:27:53;;;;;;;1.30;1.20;;;5.50;99.90;;;;;;5085096;28;20202;-84
2022/02/16 08:30:20;;;;;;;1.75;1.65;;;5.60;99.90;;;;;;5096933;28;20206;-84
2022/02/16 08:32:49;;;;;;;1.20;1.17;;;5.50;99.90;;;;;;5108934;28;20251;-84
2022/02/16 08:35:16;;;;;;;1.60;1.33;;;5.50;99.90;;;;;;5082814;28;20258;-83
2022/02/16 08:37:43;;;;;;;1.60;1.40;;;5.50;99.90;;;;;;5095509;28;20251;-84
2022/02/16 08:40:13;;;;;;;2.65;1.45;;;4.80;99.90;;;;;;5106720;28;20620;-83
2022/02/16 08:42:40;;;;;;;2.72;1.40;;;5.40;99.90;;;;;;5104120;28;20195;-84
2022/02/16 08:45:08;;;;;;;1.77;1.67;;;5.40;99.90;;;;;;5083112;28;20671;-83
2022/02/16 08:47:41;;;;;;;1.75;1.13;;;5.40;99.90;;;;;;5091401;27;20279;-83
2022/02/16 08:50:09;;;;;;;1.50;1.40;;;5.40;99.90;;;;;;5088905;28;21135;-83
2022/02/16 08:52:36;;;;;;;1.15;1.15;;;5.50;99.90;;;;;;5098055;28;20945;-83
2022/02/16 08:55:05;;;;;;;1.40;1.30;;;5.40;99.90;;;;;;5109597;28;20279;-83
2022/02/16 08:57:33;;;;;;;1.35;1.20;;;5.30;99.90;;;;;;5102824;28;20207;-83
2022/02/16 09:00:00;;;;;;;1.02;0.95;;;5.50;99.90;;;;;;5110487;28;20205;-83
2022/02/16 09:02:27;;;;;;;1.23;1.13;;;5.40;99.90;;;;;;5101743;28;20263;-84
2022/02/16 09:04:54;;;;;;;0.90;0.70;;;5.50;99.90;;;;;;5089874;28;20225;-84
2022/02/16 09:07:30;;;;;;;1.10;1.00;;;5.40;99.90;;;;;;5090800;28;20203;-84
2022/02/16 09:09:57;;;;;;;8.18;1.30;;;5.40;99.90;;;;;;5090196;28;20296;-83
2022/02/16 09:12:25;;;;;;;1.27;1.17;;;5.40;99.90;;;;;;5089299;28;20282;-84
2022/02/16 09:14:53;;;;;;;3.25;1.33;;;5.40;99.90;;;;;;5086854;28;20525;-83
2022/02/16 09:17:21;;;;;;;2.67;1.25;;;5.50;99.90;;;;;;5090237;28;20284;-83
2022/02/16 09:19:48;;;;;;;1.20;1.20;;;5.50;99.90;;;;;;5093704;28;20196;-84
2022/02/16 09:22:15;;;;;;;1.63;1.23;;;5.50;99.90;;;;;;5110103;28;20233;-84
2022/02/16 09:24:43;;;;;;;1.45;1.00;;;5.50;99.90;;;;;;5095507;28;20731;-83
2022/02/16 09:27:10;;;;;;;1.23;1.10;;;5.60;99.90;;;;;;5095525;28;20205;-83
2022/02/16 09:29:37;;;;;;;0.90;0.90;;;5.70;99.90;;;;;;5107820;28;20254;-83
2022/02/16 09:32:06;;;;;;;2.70;1.52;;;5.60;99.90;;;;;;5101970;28;20202;-84
2022/02/16 09:34:33;;;;;;;0.93;0.93;;;5.70;99.90;;;;;;5088818;28;20203;-83
2022/02/16 09:37:01;;;;;;;1.98;1.20;;;5.80;99.90;;;;;;5088870;28;20223;-83
2022/02/16 09:39:28;;;;;;;0.70;0.70;;;5.80;99.90;;;;;;5088509;28;20198;-83
2022/02/16 09:41:55;;;;;;;4.18;1.10;;;5.80;99.90;;;;;;5088516;28;20251;-83
2022/02/16 09:44:30;;;;;;;0.80;0.80;;;5.60;99.90;;;;;;5082268;28;20199;-83
2022/02/16 09:46:58;;;;;;;0.80;0.80;;;5.80;99.90;;;;;;5088104;28;20285;-83
2022/02/16 09:49:26;;;;;;;0.70;0.70;;;6.50;99.90;;;;;;5088421;28;20202;-83
2022/02/16 09:51:53;;;;;;;0.80;0.80;;;5.90;99.90;;;;;;5088850;28;20293;-84
2022/02/16 09:54:20;;;;;;;2.38;0.93;;;5.90;99.90;;;;;;5088373;28;20202;-83
2022/02/16 09:56:47;;;;;;;1.08;0.98;;;5.90;99.90;;;;;;5088590;28;20612;-85
2022/02/16 09:59:14;;;;;;;1.73;0.70;;;6.00;99.90;;;;;;5088353;28;20202;-84
2022/02/16 10:01:54;;;;;;;0.93;0.93;;;6.10;99.90;;;;;;5088122;28;20198;-84
2022/02/16 10:04:21;;;;;;;2.28;2.08;;;6.20;99.90;;;;;;5068439;28;20203;-84
2022/02/16 10:06:50;;;;;;;1.15;0.80;;;6.20;99.90;;;;;;5068199;28;20302;-84
2022/02/16 10:09:25;;;;;;;0.75;0.75;;;6.20;99.90;;;;;;5080208;28;20198;-84
2022/02/16 10:11:54;;;;;;;1.13;0.90;;;6.20;99.90;;;;;;5102826;28;20194;-84
2022/02/16 10:14:22;;;;;;;0.50;0.50;;;6.30;99.90;;;;;;5070838;28;20993;-84
2022/02/16 10:16:50;;;;;;;1.10;1.08;;;6.30;99.90;;;;;;5088188;28;20246;-83
2022/02/16 10:19:18;;;;;;;0.98;0.60;;;6.30;99.90;;;;;;5085323;28;20279;-84
2022/02/16 10:22:07;;;;;;;1.15;0.65;;;6.40;99.90;;;;;;5086313;28;20251;-83
2022/02/16 10:24:35;;;;;;;0.77;0.50;;;6.40;99.90;;;;;;5076552;28;20199;-83
2022/02/16 10:27:03;;;;;;;0.73;0.73;;;6.50;99.90;;;;;;5088436;28;20216;-82
2022/02/16 10:29:32;;;;;;;2.25;0.70;;;6.50;99.90;;;;;;5084378;28;20227;-82
2022/02/16 10:32:00;;;;;;;0.77;0.77;;;6.60;99.90;;;;;;5068514;28;20607;-83
2022/02/16 10:34:48;;;;;;;0.77;0.60;;;6.60;99.90;;;;;;5085309;28;20260;-81
2022/02/16 10:37:18;;;;;;;0.63;0.63;;;6.60;99.90;;;;;;5088035;28;20234;-82
2022/02/16 10:40:10;;;;;;;0.60;0.55;;;6.60;99.90;;;;;;5070006;28;20880;-82
2022/02/16 10:42:38;;;;;;;0.70;0.70;;;6.80;99.90;;;;;;5086829;28;20722;-82
2022/02/16 10:45:11;;;;;;;0.98;0.80;;;6.90;99.90;;;;;;5067015;28;20273;-82
2022/02/16 10:47:55;;;;;;;0.60;0.60;;;6.90;99.90;;;;;;5068511;28;20199;-82
2022/02/16 10:50:24;;;;;;;0.65;0.50;;;7.00;99.90;;;;;;5076693;28;20203;-82
2022/02/16 10:52:55;;;;;;;1.38;0.80;;;7.00;99.90;;;;;;5074260;28;20210;-82
2022/02/16 10:55:43;;;;;;;0.50;0.50;;;6.70;99.90;;;;;;5078511;28;20191;-81
2022/02/16 10:58:13;;;;;;;0.90;0.70;;;7.30;99.90;;;;;;5087858;28;20260;-81
2022/02/16 11:00:42;;;;;;;1.00;0.85;;;7.40;99.90;;;;;;5088335;28;20217;-81
2022/02/16 11:03:11;;;;;;;0.88;0.88;;;7.60;99.90;;;;;;5086822;28;20215;-82
2022/02/16 11:05:43;;;;;;;1.13;0.82;;;7.60;99.90;;;;;;5086479;28;20594;-81
2022/02/16 11:08:14;;;;;;;0.70;0.70;;;7.80;99.90;;;;;;5079895;28;20235;-81
2022/02/16 11:10:45;;;;;;;1.95;0.90;;;8.20;99.90;;;;;;5071333;28;20191;-81
2022/02/16 11:13:15;;;;;;;0.63;0.63;;;7.80;99.90;;;;;;5065161;28;20274;-82
2022/02/16 11:15:42;;;;;;;0.80;0.80;;;8.00;99.90;;;;;;5070325;28;20252;-82
2022/02/16 11:18:14;;;;;;;1.13;1.02;;;8.00;99.90;;;;;;5072870;28;20223;-81
2022/02/16 11:20:41;;;;;;;1.00;0.90;;;8.00;99.90;;;;;;5071820;28;20230;-83
2022/02/16 11:23:09;;;;;;;0.70;0.60;;;8.30;99.90;;;;;;5067587;28;20287;-82
2022/02/16 11:25:40;;;;;;;2.47;0.80;;;8.30;99.90;;;;;;5085202;28;20195;-82
2022/02/16 11:28:12;;;;;;;1.08;0.82;;;8.20;99.90;;;;;;5078335;28;20282;-82
2022/02/16 11:30:40;;;;;;;0.85;0.77;;;8.20;99.90;;;;;;5085054;28;20205;-82
2022/02/16 11:33:16;;;;;;;0.50;0.50;;;8.40;99.90;;;;;;5090006;28;20217;-81
2022/02/16 11:35:50;;;;;;;0.83;0.43;;;8.60;99.90;;;;;;5087974;28;20648;-82
2022/02/16 11:38:19;;;;;;;0.53;0.50;;;8.70;99.90;;;;;;5087838;28;20712;-82
2022/02/16 11:40:50;;;;;;;1.23;0.60;;;8.90;99.90;;;;;;5089374;28;21203;-82
2022/02/16 11:43:19;;;;;;;0.47;0.47;;;9.00;99.90;;;;;;5089389;28;20733;-83
2022/02/16 11:45:58;;;;;;;0.70;0.50;;;9.10;99.90;;;;;;5089068;28;20673;-81
2022/02/16 11:48:50;;;;;;;1.90;0.97;;;9.20;99.90;;;;;;5089765;28;20211;-81
2022/02/16 11:51:37;;;;;;;1.10;1.10;;;9.20;99.90;;;;;;5089605;28;20719;-81
2022/02/16 11:54:43;;;;;;;1.23;0.60;;;9.30;99.90;;;;;;5090523;28;20629;-81
2022/02/16 11:57:39;;;;;;;0.53;0.40;;;9.20;99.90;;;;;;5090761;28;20732;-81
2022/02/16 12:00:11;;;;;;;0.50;0.50;;;9.30;99.90;;;;;;5090674;28;20602;-82
2022/02/16 12:03:10;;;;;;;0.90;0.60;;;9.40;99.90;;;;;;5090665;28;20635;-81
2022/02/16 12:06:03;;;;;;;0.80;0.60;;;9.40;99.90;;;;;;5090649;28;20774;-81
2022/02/16 12:08:33;;;;;;;0.53;0.53;;;9.40;99.90;;;;;;5088017;28;20310;-81
2022/02/16 12:11:06;;;;;;;0.50;0.50;;;9.40;99.90;;;;;;5090738;28;20619;-81
2022/02/16 12:13:37;;;;;;;0.80;0.80;;;9.30;99.90;;;;;;5090810;28;20622;-81
2022/02/16 12:16:24;;;;;;;0.60;0.60;;;9.30;99.90;;;;;;5089799;28;20674;-82
2022/02/16 12:25:25;;;;;;;;;;;;;;;;;;;;;
2022/02/16 12:30:57;;;;;;;2.43;0.67;;;9.50;99.90;;;;;;5090112;28;20628;-83
2022/02/16 12:33:25;;;;;;;0.60;0.50;;;9.10;99.90;;;;;;5086573;28;20672;-84
2022/02/16 12:35:53;;;;;;;0.50;0.40;;;;;;;;;;5089054;28;20622;-83
2022/02/16 12:38:24;;;;;;;0.60;0.40;;;9.20;99.90;;;;;;5090034;28;20614;-83
2022/02/16 12:40:53;;;;;;;0.50;0.50;;;9.20;99.90;;;;;;5090260;28;20678;-83
2022/02/16 12:43:21;;;;;;;0.70;0.50;;;9.20;99.90;;;;;;5081780;28;20649;-83
2022/02/16 12:45:54;;;;;;;0.70;0.63;;;9.10;99.90;;;;;;5067569;28;20239;-83
2022/02/16 12:48:21;;;;;;;1.13;0.60;;;9.10;99.90;;;;;;5068538;28;20667;-84
2022/02/16 12:50:48;;;;;;;2.00;0.90;;;;;;;;;;5068492;28;20736;-83
2022/02/16 12:53:16;;;;;;;0.73;0.53;;;9.40;99.90;;;;;;5075782;28;20701;-83
2022/02/16 12:55:45;;;;;;;0.40;0.30;;;9.40;99.90;;;;;;5088842;28;20741;-83
2022/02/16 12:58:15;;;;;;;0.53;0.53;;;9.50;99.90;;;;;;5088772;28;20702;-84
2022/02/16 13:00:48;;;;;;;0.70;0.70;;;9.40;99.90;;;;;;5089466;28;20621;-83
2022/02/16 13:03:17;;;;;;;0.90;0.50;;;9.50;99.90;;;;;;5089143;28;20630;-83
2022/02/16 13:05:46;;;;;;;0.30;0.30;;;9.50;99.90;;;;;;5088444;28;20646;-83
2022/02/16 13:08:15;;;;;;;0.50;0.50;;;9.60;99.90;;;;;;5088689;28;20705;-83
2022/02/16 13:10:44;;;;;;;1.53;0.40;;;9.40;99.90;;;;;;5088765;28;20622;-83
2022/02/16 13:13:20;;;;;;;4.30;0.73;;;9.50;99.90;;;;;;5089430;28;20622;-83
2022/02/16 13:15:48;;;;;;;3.17;0.40;;;9.60;99.90;;;;;;5088909;28;20675;-84